Time;durP1;ratioP1;P1;durP2;ratioP2;P2;SDS_P1;SDS_P2;PMS_P1;PMS_P2;Temp;Humidity;BMP_temperature;BMP_pressure;BME280_temperature;BME280_humidity;BME280_pressure;Samples;Min_cycle;Max_cycle;Signal;HPM_P1;HPM_P2
2023/07/10 00:01:02;;;;;;;7.90;4.03;;;;;;;19.14;100.00;102510.72;4918249;29;20491;-74
2023/07/10 00:03:28;;;;;;;7.27;4.40;;;;;;;19.83;100.00;102631.66;4924414;29;20514;-75
2023/07/10 00:05:57;;;;;;;8.93;5.03;;;;;;;18.96;100.00;102519.56;4921327;29;20202;-74
2023/07/10 00:08:23;;;;;;;10.67;5.03;;;;;;;19.39;100.00;102583.47;4921692;29;20892;-74
2023/07/10 00:10:50;;;;;;;14.87;6.50;;;;;;;19.12;100.00;102561.81;4925033;29;20459;-74
2023/07/10 00:13:21;;;;;;;9.47;5.63;;;;;;;17.70;100.00;102383.03;4922441;29;20239;-74
2023/07/10 00:15:47;;;;;;;13.40;7.80;;;;;;;19.54;100.00;102662.94;4925281;29;20471;-73
2023/07/10 00:18:16;;;;;;;12.67;7.33;;;;;;;19.91;100.00;102681.50;4922419;29;20462;-73
2023/07/10 00:20:42;;;;;;;17.90;8.60;;;;;;;19.65;100.00;102677.81;4919169;29;20443;-74
2023/07/10 00:23:08;;;;;;;14.20;7.30;;;;;;;19.20;100.00;102596.91;4921121;29;20550;-74
2023/07/10 00:25:35;;;;;;;11.97;6.33;;;;;;;19.27;100.00;102599.63;4922960;29;20443;-74
2023/07/10 00:28:01;;;;;;;18.53;7.70;;;;;;;19.84;100.00;102703.28;4920459;29;20451;-74
2023/07/10 00:30:26;;;;;;;11.37;5.90;;;;;;;19.68;100.00;102682.00;4932260;28;20451;-74
2023/07/10 00:32:54;;;;;;;15.20;6.30;;;;;;;19.80;100.00;102683.81;4923556;29;20702;-74
2023/07/10 00:35:27;;;;;;;18.00;6.57;;;;;;;19.66;100.00;102654.97;4923632;29;20195;-74
2023/07/10 00:38:02;;;;;;;15.53;7.23;;;;;;;19.88;100.00;102674.59;4919750;29;20443;-74
2023/07/10 00:40:33;;;;;;;14.17;7.20;;;;;;;19.06;100.00;102543.59;4921587;29;20447;-74
2023/07/10 00:43:05;;;;;;;13.47;5.43;;;;;;;19.91;100.00;102693.22;4924799;29;20470;-74
2023/07/10 00:45:31;;;;;;;15.57;6.77;;;;;;;19.13;100.00;102581.66;4926398;29;21051;-74
2023/07/10 00:48:23;;;;;;;17.27;6.60;;;;;;;19.08;100.00;102554.28;4924908;29;20451;-73
2023/07/10 00:50:50;;;;;;;15.67;7.43;;;;;;;19.81;100.00;102688.22;4928539;29;20267;-75
2023/07/10 00:53:25;;;;;;;12.17;6.03;;;;;;;19.89;100.00;102684.41;4926015;29;20467;-74
2023/07/10 00:55:53;;;;;;;12.60;6.73;;;;;;;19.91;100.00;102682.31;4927692;29;20946;-75
2023/07/10 00:58:23;;;;;;;15.57;6.73;;;;;;;19.89;100.00;102675.41;4924768;29;20475;-74
2023/07/10 01:01:10;;;;;;;12.33;6.27;;;;;;;19.59;100.00;102606.00;4927527;29;20435;-76
2023/07/10 01:03:37;;;;;;;12.33;6.23;;;;;;;19.84;100.00;102638.75;4923169;29;20522;-74
2023/07/10 01:06:20;;;;;;;13.60;6.20;;;;;;;19.78;100.00;102627.91;4936021;28;20534;-75
2023/07/10 01:08:56;;;;;;;16.27;7.97;;;;;;;19.80;100.00;102670.22;4923398;29;20475;-75
2023/07/10 01:11:22;;;;;;;10.30;6.60;;;;;;;19.76;100.00;102671.72;4915187;29;20497;-76
2023/07/10 01:13:50;;;;;;;12.10;6.77;;;;;;;19.30;100.00;102595.66;4923008;29;21054;-75
2023/07/10 01:16:17;;;;;;;14.90;6.87;;;;;;;19.35;100.00;102683.75;4923116;29;20198;-74
2023/07/10 01:18:42;;;;;;;16.50;7.90;;;;;;;19.16;100.00;102665.56;4917982;29;20521;-74
2023/07/10 01:21:26;;;;;;;11.33;6.20;;;;;;;19.55;100.00;102707.31;4921916;29;20939;-75
2023/07/10 01:23:53;;;;;;;13.00;6.10;;;;;;;19.46;100.00;102684.13;4923222;29;20211;-74
2023/07/10 01:26:19;;;;;;;13.53;5.53;;;;;;;19.84;100.00;102728.63;4925430;29;20447;-74
2023/07/10 01:28:45;;;;;;;11.73;5.30;;;;;;;19.81;100.00;102718.16;4920736;29;20478;-74
2023/07/10 01:31:15;;;;;;;10.77;5.90;;;;;;;19.01;100.00;102581.50;4919885;29;20192;-75
2023/07/10 01:33:48;;;;;;;9.20;4.60;;;;;;;19.89;100.00;102730.72;4926314;29;20526;-76
2023/07/10 01:36:17;;;;;;;11.03;5.50;;;;;;;19.67;100.00;102696.66;4925235;29;20446;-74
2023/07/10 01:39:04;;;;;;;13.93;4.90;;;;;;;18.91;100.00;102578.38;4923405;29;20530;-75
2023/07/10 01:41:38;;;;;;;12.63;5.70;;;;;;;19.82;100.00;102708.13;4923581;29;20451;-75
2023/07/10 01:44:25;;;;;;;11.43;5.50;;;;;;;19.04;100.00;102619.13;4923624;29;20467;-75
2023/07/10 01:46:51;;;;;;;8.43;5.23;;;;;;;19.54;100.00;102654.78;4923418;29;20522;-74
2023/07/10 01:49:21;;;;;;;10.63;4.57;;;;;;;19.92;100.00;102707.66;4921857;29;20522;-74
2023/07/10 01:51:47;;;;;;;13.00;5.53;;;;;;;19.82;100.00;102694.50;4924754;29;20650;-75
2023/07/10 01:54:15;;;;;;;12.40;6.10;;;;;;;19.51;100.00;102633.44;4925279;29;20623;-74
2023/07/10 01:56:41;;;;;;;11.07;5.37;;;;;;;19.79;100.00;102690.34;4925616;29;20452;-74
2023/07/10 01:59:06;;;;;;;11.13;5.83;;;;;;;19.78;100.00;102690.53;4925826;29;20482;-74
2023/07/10 02:01:32;;;;;;;12.23;5.00;;;;;;;19.91;100.00;102695.09;4926044;29;20521;-74
2023/07/10 02:03:57;;;;;;;9.57;5.50;;;;;;;19.27;100.00;102598.78;4924324;29;20215;-74
2023/07/10 02:06:23;;;;;;;9.60;5.13;;;;;;;19.07;100.00;102561.59;4923801;29;20180;-75
2023/07/10 02:08:48;;;;;;;9.60;4.53;;;;;;;19.88;100.00;102695.53;4922522;29;20215;-74
2023/07/10 02:11:14;;;;;;;7.17;3.90;;;;;;;19.83;100.00;102693.47;4922165;29;20191;-75
2023/07/10 02:13:40;;;;;;;9.80;4.43;;;;;;;19.68;100.00;102685.56;4931594;29;20234;-74
2023/07/10 02:16:10;;;;;;;9.93;5.10;;;;;;;19.53;100.00;102682.22;4940363;29;20190;-76
2023/07/10 02:18:35;;;;;;;11.00;6.35;;;;;;;18.93;100.00;102559.97;4952432;28;20530;-77
2023/07/10 02:21:01;;;;;;;13.07;6.20;;;;;;;19.50;100.00;102671.75;4921839;29;20522;-76
2023/07/10 02:23:26;;;;;;;9.07;6.07;;;;;;;19.07;100.00;102593.41;4919609;29;20204;-77
2023/07/10 02:25:52;;;;;;;12.53;6.53;;;;;;;18.82;100.00;102571.50;4921817;29;20188;-78
2023/07/10 02:28:17;;;;;;;11.80;6.80;;;;;;;19.50;100.00;102666.31;4920087;29;20237;-77
2023/07/10 02:30:42;;;;;;;12.13;8.10;;;;;;;18.90;100.00;102601.19;4923554;29;20245;-75
2023/07/10 02:33:08;;;;;;;14.43;8.20;;;;;;;18.86;100.00;102570.88;4922575;29;20219;-77
2023/07/10 02:35:33;;;;;;;12.00;8.30;;;;;;;19.45;100.00;102696.91;4924040;29;20258;-78
2023/07/10 02:37:59;;;;;;;14.60;8.53;;;;;;;19.43;100.00;102675.31;4921384;29;20192;-76
2023/07/10 02:40:24;;;;;;;10.47;8.10;;;;;;;19.04;100.00;102621.84;4922248;29;20188;-76
2023/07/10 02:42:49;;;;;;;12.37;9.90;;;;;;;18.69;100.00;102577.75;4928194;29;20204;-75
2023/07/10 02:45:16;;;;;;;14.80;9.80;;;;;;;19.38;100.00;102688.75;4927534;29;20190;-74
2023/07/10 02:47:41;;;;;;;13.20;8.73;;;;;;;18.65;100.00;102561.00;4926824;29;20672;-75
2023/07/10 02:50:09;;;;;;;14.27;9.30;;;;;;;19.38;100.00;102657.97;4928156;29;20478;-76
2023/07/10 02:52:34;;;;;;;14.07;9.53;;;;;;;18.78;100.00;102565.66;4928639;29;20217;-75
2023/07/10 02:55:00;;;;;;;12.23;9.43;;;;;;;19.32;100.00;102656.94;4926153;29;20451;-74
2023/07/10 02:57:25;;;;;;;13.20;9.63;;;;;;;19.33;100.00;102649.63;4924955;29;20653;-75
2023/07/10 02:59:51;;;;;;;14.43;9.50;;;;;;;18.13;100.00;102451.34;4927896;29;20192;-75
2023/07/10 03:02:16;;;;;;;14.30;9.30;;;;;;;17.68;100.00;102399.56;4927449;29;20211;-75
2023/07/10 03:04:41;;;;;;;12.10;8.10;;;;;;;19.28;100.00;102642.09;4925629;29;20653;-75
2023/07/10 03:07:07;;;;;;;12.80;8.90;;;;;;;19.40;100.00;102666.75;4928217;29;20199;-74
2023/07/10 03:09:32;;;;;;;13.50;8.70;;;;;;;18.83;100.00;102584.84;4927379;29;20215;-75
2023/07/10 03:11:58;;;;;;;11.73;8.20;;;;;;;19.49;100.00;102678.25;4924487;29;20191;-77
2023/07/10 03:14:23;;;;;;;14.20;9.20;;;;;;;18.97;100.00;102624.56;4923089;29;20195;-77
2023/07/10 03:16:49;;;;;;;10.03;8.77;;;;;;;18.70;100.00;102579.41;4922498;29;20203;-75
2023/07/10 03:19:14;;;;;;;17.60;9.63;;;;;;;19.27;100.00;102666.81;4917029;29;20639;-75
2023/07/10 03:21:39;;;;;;;15.90;8.80;;;;;;;18.86;100.00;102646.13;4921740;29;20188;-78
2023/07/10 03:24:05;;;;;;;12.77;8.70;;;;;;;18.21;100.00;102510.88;4926007;29;20302;-78
2023/07/10 03:26:31;;;;;;;15.33;8.87;;;;;;;18.69;100.00;102626.69;4923934;29;20184;-75
2023/07/10 03:29:07;;;;;;;11.07;7.10;;;;;;;19.26;100.00;102692.31;4925114;29;20203;-76
2023/07/10 03:31:33;;;;;;;13.50;8.80;;;;;;;18.47;100.00;102588.81;4925408;29;20191;-76
2023/07/10 03:33:58;;;;;;;13.40;8.27;;;;;;;19.24;100.00;102705.28;4927104;29;20490;-75
2023/07/10 03:36:24;;;;;;;11.20;7.33;;;;;;;19.34;100.00;102705.72;4925387;29;20202;-76
2023/07/10 03:38:49;;;;;;;10.07;6.70;;;;;;;19.24;100.00;102695.28;4928013;29;20188;-75
2023/07/10 03:41:15;;;;;;;12.60;7.90;;;;;;;18.42;100.00;102547.03;4924505;29;20267;-78
2023/07/10 03:43:40;;;;;;;9.80;6.87;;;;;;;18.75;100.00;102598.69;4923542;29;20280;-76
2023/07/10 03:46:06;;;;;;;14.40;6.93;;;;;;;18.47;100.00;102598.88;4926075;29;20214;-77
2023/07/10 03:48:31;;;;;;;11.97;7.67;;;;;;;19.03;100.00;102662.84;4925863;29;20207;-77
2023/07/10 03:50:58;;;;;;;10.53;6.70;;;;;;;19.40;100.00;102694.81;4925138;29;20814;-77
2023/07/10 03:53:23;;;;;;;16.23;7.10;;;;;;;19.42;100.00;102700.88;4922701;29;20246;-77
2023/07/10 03:55:53;;;;;;;12.90;7.17;;;;;;;19.34;100.00;102695.66;4919872;29;20530;-78
2023/07/10 03:58:21;;;;;;;11.27;6.83;;;;;;;19.29;100.00;102686.44;4925430;29;20683;-77
2023/07/10 04:00:48;;;;;;;9.57;6.50;;;;;;;18.70;100.00;102585.69;4926861;29;20447;-76
2023/07/10 04:03:14;;;;;;;10.60;6.77;;;;;;;18.62;100.00;102571.47;4924792;29;20459;-76
2023/07/10 04:05:42;;;;;;;9.53;6.20;;;;;;;19.19;100.00;102689.63;4925040;29;20447;-79
2023/07/10 04:08:07;;;;;;;9.70;6.67;;;;;;;18.63;100.00;102594.88;4926367;29;20183;-76
2023/07/10 04:10:34;;;;;;;14.40;7.13;;;;;;;18.97;100.00;102651.75;4919790;29;20486;-74
2023/07/10 04:12:59;;;;;;;7.80;5.60;;;;;;;18.78;100.00;102611.03;4921043;29;20776;-77
2023/07/10 04:15:24;;;;;;;6.80;5.57;;;;;;;18.77;100.00;102623.75;4926715;29;20447;-77
2023/07/10 04:17:50;;;;;;;7.60;4.77;;;;;;;18.91;100.00;102619.16;4924598;29;20191;-80
2023/07/10 04:20:15;;;;;;;8.50;5.07;;;;;;;19.24;100.00;102694.41;4923762;29;20187;-76
2023/07/10 04:22:41;;;;;;;7.57;4.17;;;;;;;19.01;100.00;102657.63;4917319;29;20211;-77
2023/07/10 04:25:07;;;;;;;8.37;5.00;;;;;;;18.97;100.00;102672.69;4918538;29;20191;-78
2023/07/10 04:27:32;;;;;;;6.70;3.70;;;;;;;18.88;100.00;102655.75;4916927;29;20194;-78
2023/07/10 04:29:59;;;;;;;6.43;4.10;;;;;;;18.53;100.00;102607.00;4918845;29;20275;-76
2023/07/10 04:32:24;;;;;;;4.90;3.23;;;;;;;19.11;100.00;102717.03;4918434;29;20499;-76
2023/07/10 04:34:50;;;;;;;3.70;3.07;;;;;;;18.60;100.00;102598.00;4924211;29;20530;-80
2023/07/10 04:37:15;;;;;;;4.73;2.93;;;;;;;19.20;100.00;102702.16;4921852;29;20347;-78
2023/07/10 04:39:41;;;;;;;6.00;3.17;;;;;;;18.35;100.00;102582.34;4921030;29;20679;-76
2023/07/10 04:42:07;;;;;;;5.40;3.30;;;;;;;18.36;100.00;102618.50;4923005;29;20262;-78
2023/07/10 04:44:32;;;;;;;3.80;2.07;;;;;;;18.54;100.00;102626.84;4923745;29;20188;-77
2023/07/10 04:46:57;;;;;;;5.33;3.13;;;;;;;19.06;100.00;102704.06;4922670;29;20680;-78
2023/07/10 04:49:23;;;;;;;5.80;2.80;;;;;;;18.62;100.00;102653.84;4921699;29;20219;-78
2023/07/10 04:51:48;;;;;;;4.07;2.67;;;;;;;18.72;100.00;102664.31;4919802;29;20227;-79
2023/07/10 04:54:14;;;;;;;3.93;2.20;;;;;;;18.96;100.00;102733.56;4921621;29;20220;-79
2023/07/10 04:56:39;;;;;;;4.13;1.97;;;;;;;18.84;100.00;102699.91;4922633;29;20203;-78
2023/07/10 04:59:05;;;;;;;3.50;2.13;;;;;;;18.89;100.00;102702.81;4926335;29;20544;-79
2023/07/10 05:01:35;;;;;;;3.00;2.30;;;;;;;19.24;100.00;102736.06;4957794;28;20668;-76
2023/07/10 05:04:01;;;;;;;4.30;1.90;;;;;;;19.14;100.00;102747.34;4918108;29;20286;-79
2023/07/10 05:06:27;;;;;;;3.27;1.87;;;;;;;19.09;100.00;102719.97;4925314;29;20451;-79
2023/07/10 05:08:54;;;;;;;3.90;1.73;;;;;;;19.14;100.00;102736.47;4925977;29;20502;-77
2023/07/10 05:11:22;;;;;;;4.83;2.20;;;;;;;19.18;100.00;102739.63;4925331;29;20483;-79
2023/07/10 05:13:47;;;;;;;2.80;1.90;;;;;;;19.02;100.00;102688.38;4926422;29;20475;-79
2023/07/10 05:16:14;;;;;;;4.03;1.93;;;;;;;18.56;100.00;102656.56;4927541;29;20798;-79
2023/07/10 05:18:40;;;;;;;3.70;1.87;;;;;;;19.30;100.00;102748.84;4923963;29;20204;-78
2023/07/10 05:21:05;;;;;;;4.00;1.77;;;;;;;19.15;100.00;102745.47;4936733;28;20456;-76
2023/07/10 05:23:31;;;;;;;3.70;1.80;;;;;;;19.29;100.00;102787.94;4922601;29;20220;-77
2023/07/10 05:26:07;;;;;;;3.40;1.90;;;;;;;18.93;100.00;102709.50;4923859;29;20184;-77
2023/07/10 05:28:34;;;;;;;3.90;1.87;;;;;;;19.20;100.00;102748.41;4929513;29;20278;-77
2023/07/10 05:31:02;;;;;;;2.30;1.63;;;;;;;19.11;100.00;102761.38;4929181;29;20945;-77
2023/07/10 05:33:28;;;;;;;3.53;1.30;;;;;;;18.28;100.00;102633.09;4929368;29;20462;-76
2023/07/10 05:36:00;;;;;;;2.67;1.50;;;;;;;18.22;100.00;102664.63;4930212;29;20451;-77
2023/07/10 05:38:27;;;;;;;4.00;1.60;;;;;;;18.36;100.00;102687.25;4929189;29;20921;-78
2023/07/10 05:40:53;;;;;;;4.40;1.80;;;;;;;19.02;100.00;102787.13;4927454;29;20478;-77
2023/07/10 05:43:19;;;;;;;3.43;1.70;;;;;;;19.03;100.00;102777.06;4912646;29;20475;-77
2023/07/10 05:45:46;;;;;;;3.20;1.50;;;;;;;18.36;100.00;102672.84;4928126;29;20235;-79
2023/07/10 05:48:12;;;;;;;5.30;1.40;;;;;;;19.02;100.00;102800.72;4927818;29;20450;-78
2023/07/10 05:50:37;;;;;;;2.47;1.30;;;;;;;18.95;100.00;102789.00;4924501;29;20447;-77
2023/07/10 05:53:02;;;;;;;2.40;1.20;;;;;;;18.94;100.00;102804.47;4928160;29;20677;-80
2023/07/10 05:55:28;;;;;;;2.70;1.40;;;;;;;19.15;100.00;102799.88;4935498;29;20200;-79
2023/07/10 05:57:53;;;;;;;2.80;1.40;;;;;;;19.04;100.00;102803.25;4928649;29;20275;-80
2023/07/10 06:00:31;;;;;;;2.97;1.33;;;;;;;19.12;100.00;102805.72;4929230;29;20192;-77
2023/07/10 06:02:56;;;;;;;4.03;1.60;;;;;;;18.36;100.00;102708.97;4926299;29;25607;-77
2023/07/10 06:05:22;;;;;;;2.67;1.33;;;;;;;17.00;100.00;102542.47;4925072;29;21096;-80
2023/07/10 06:07:47;;;;;;;7.37;2.23;;;;;;;18.84;100.00;102771.41;4926426;29;20267;-81
2023/07/10 06:10:13;;;;;;;3.20;1.30;;;;;;;19.23;100.00;102828.75;4923966;29;20295;-79
2023/07/10 06:12:41;;;;;;;3.63;1.50;;;;;;;16.74;100.00;102451.81;4922962;29;22132;-81
2023/07/10 06:15:06;;;;;;;5.13;1.90;;;;;;;18.01;100.00;102702.81;4924866;29;20222;-80
2023/07/10 06:17:32;;;;;;;5.13;1.60;;;;;;;18.09;100.00;102720.81;4927270;29;20877;-80
2023/07/10 06:19:57;;;;;;;4.83;1.80;;;;;;;17.61;100.00;102648.31;4927235;29;20450;-82
2023/07/10 06:22:23;;;;;;;3.90;1.80;;;;;;;17.73;100.00;102614.13;4926632;29;20215;-82
2023/07/10 06:24:48;;;;;;;6.43;1.53;;;;;;;16.66;100.00;102430.28;4928544;29;20199;-83
2023/07/10 06:27:14;;;;;;;6.37;2.33;;;;;;;18.85;100.00;102783.94;4928686;29;20187;-84
2023/07/10 06:29:39;;;;;;;5.37;1.70;;;;;;;17.42;100.00;102622.78;4928206;29;20484;-82
2023/07/10 06:32:05;;;;;;;4.20;1.37;;;;;;;19.23;100.00;102847.81;4921401;29;20222;-83
2023/07/10 06:34:31;;;;;;;2.60;1.17;;;;;;;18.60;100.00;102742.06;4926360;29;20204;-82
2023/07/10 06:36:56;;;;;;;3.90;1.87;;;;;;;18.53;100.00;102726.56;4925166;29;20447;-85
2023/07/10 06:39:22;;;;;;;4.33;1.40;;;;;;;19.15;100.00;102841.53;4927730;29;20187;-83
2023/07/10 06:41:47;;;;;;;3.17;1.40;;;;;;;19.01;100.00;102803.66;4924163;29;20187;-83
2023/07/10 06:44:14;;;;;;;3.30;1.57;;;;;;;19.27;100.00;102854.53;4923364;29;20696;-83
2023/07/10 06:46:40;;;;;;;4.90;1.77;;;;;;;19.10;100.00;102814.13;4926825;29;20707;-84
2023/07/10 06:49:05;;;;;;;3.63;1.90;;;;;;;19.35;100.00;102870.63;4927678;29;20574;-84
2023/07/10 06:51:31;;;;;;;5.00;1.40;;;;;;;19.32;100.00;102869.16;4928035;29;20239;-83
2023/07/10 06:53:56;;;;;;;4.03;1.83;;;;;;;19.05;100.00;102843.81;4920178;29;21063;-83
2023/07/10 06:56:21;;;;;;;3.67;1.77;;;;;;;18.85;100.00;102804.88;4926714;29;20195;-84
2023/07/10 06:58:47;;;;;;;3.53;1.53;;;;;;;18.42;100.00;102753.50;4927743;29;20191;-86
2023/07/10 07:01:12;;;;;;;6.13;1.80;;;;;;;19.39;100.00;102875.47;4928981;29;20240;-86
2023/07/10 07:03:40;;;;;;;2.93;1.13;;;;;;;19.40;100.00;102873.56;4924723;29;20211;-82
2023/07/10 07:06:07;;;;;;;4.73;1.60;;;;;;;18.82;100.00;102786.25;4934577;28;20655;-85
2023/07/10 07:08:34;;;;;;;3.13;1.43;;;;;;;19.11;100.00;102839.44;4915326;29;20479;-85
2023/07/10 07:10:59;;;;;;;4.80;1.40;;;;;;;18.78;100.00;102744.22;4924099;29;20450;-87
2023/07/10 07:13:25;;;;;;;3.63;2.03;;;;;;;18.99;100.00;102762.22;4924021;29;20475;-86
2023/07/10 07:15:55;;;;;;;4.70;2.03;;;;;;;19.53;100.00;102850.97;4925460;29;20216;-83
2023/07/10 07:18:22;;;;;;;3.40;1.47;;;;;;;19.50;100.00;102844.06;4924701;29;20657;-87
2023/07/10 07:20:48;;;;;;;4.17;1.67;;;;;;;19.55;100.00;102870.63;4925655;29;20503;-86
2023/07/10 07:23:14;;;;;;;2.47;1.37;;;;;;;19.15;100.00;102784.41;4924114;29;20471;-88
2023/07/10 07:25:43;;;;;;;2.80;1.30;;;;;;;19.09;100.00;102766.22;4921904;29;20642;-86
2023/07/10 07:28:09;;;;;;;3.33;1.70;;;;;;;19.82;100.00;102858.72;4921646;29;20547;-86
2023/07/10 07:30:35;;;;;;;3.47;1.50;;;;;;;19.70;100.00;102848.66;4920966;29;20483;-86
2023/07/10 07:33:01;;;;;;;3.67;1.67;;;;;;;19.80;100.00;102849.91;4923323;29;20586;-85
2023/07/10 07:35:26;;;;;;;4.20;1.90;;;;;;;19.88;100.00;102865.22;4926796;29;20242;-86
2023/07/10 07:37:52;;;;;;;3.50;1.53;;;;;;;19.56;100.00;102807.84;4938788;29;20192;-85
2023/07/10 07:40:18;;;;;;;7.83;2.20;;;;;;;19.76;100.00;102854.13;4917939;29;20455;-88
2023/07/10 07:42:44;;;;;;;5.50;2.17;;;;;;;19.69;100.00;102866.91;4938272;29;20576;-86
2023/07/10 07:45:11;;;;;;;7.67;1.73;;;;;;;18.50;100.00;102675.34;4921902;29;20196;-86
2023/07/10 07:47:36;;;;;;;3.67;2.30;;;;;;;19.83;100.00;102854.94;4922060;29;20941;-84
2023/07/10 07:50:02;;;;;;;3.83;2.10;;;;;;;20.03;100.00;102854.06;4924937;29;20482;-84
2023/07/10 07:52:28;;;;;;;5.47;2.27;;;;;;;19.79;100.00;102856.44;4923519;29;20212;-85
2023/07/10 07:54:53;;;;;;;3.23;1.60;;;;;;;19.53;100.00;102777.50;4924393;29;20203;-85
2023/07/10 07:57:22;;;;;;;5.00;1.70;;;;;;;19.88;100.00;102837.16;4924665;29;20199;-86
2023/07/10 07:59:48;;;;;;;6.87;2.47;;;;;;;19.23;100.00;102728.09;4925560;29;20215;-85
2023/07/10 08:02:13;;;;;;;4.63;1.90;;;;;;;19.80;100.00;102813.69;4919195;29;20473;-90
2023/07/10 08:04:41;;;;;;;6.97;1.97;;;;;;;20.11;100.00;102881.09;4925033;29;20451;-87
2023/07/10 08:07:06;;;;;;;4.10;1.73;;;;;;;20.30;100.00;102882.06;4918902;29;20282;-88
2023/07/10 08:09:32;;;;;;;3.23;2.03;;;;;;;19.90;100.00;102862.25;4926570;29;20474;-90
2023/07/10 08:11:57;;;;;;;5.50;2.60;;;;;;;20.16;100.00;102878.53;4925082;29;20195;-85
2023/07/10 08:14:23;;;;;;;6.67;2.30;;;;;;;19.61;100.00;102793.56;4924569;29;20270;-87
2023/07/10 08:16:48;;;;;;;5.10;2.40;;;;;;;19.62;100.00;102817.03;4939941;29;20204;-87
2023/07/10 08:19:13;;;;;;;4.47;2.30;;;;;;;19.42;100.00;102770.78;4923106;29;20191;-88
2023/07/10 08:21:39;;;;;;;5.70;2.03;;;;;;;19.80;100.00;102830.03;4923854;29;20188;-90
2023/07/10 08:24:04;;;;;;;3.90;1.77;;;;;;;20.27;100.00;102885.22;4924457;29;20246;-89
2023/07/10 08:26:31;;;;;;;5.90;2.07;;;;;;;20.19;100.00;102820.94;4929585;29;20248;-89
2023/07/10 08:28:56;;;;;;;4.63;2.37;;;;;;;20.61;100.00;102891.44;4925217;29;20835;-88
2023/07/10 08:31:22;;;;;;;3.80;1.93;;;;;;;20.56;100.00;102855.81;4926699;29;20452;-88
2023/07/10 08:33:47;;;;;;;8.43;2.80;;;;;;;20.50;100.00;102896.47;4928410;29;20288;-88
2023/07/10 08:36:13;;;;;;;4.77;2.47;;;;;;;19.29;100.00;102710.94;4928067;29;20279;-87
2023/07/10 08:38:39;;;;;;;3.10;1.87;;;;;;;20.52;100.00;102894.41;4927780;29;20180;-88
2023/07/10 08:41:21;;;;;;;5.70;2.20;;;;;;;20.27;100.00;102874.34;4931246;29;20271;-87
2023/07/10 08:43:48;;;;;;;5.83;2.00;;;;;;;20.74;100.00;102907.72;4928987;29;20247;-87
2023/07/10 08:46:22;;;;;;;3.90;2.00;;;;;;;20.92;100.00;102923.41;4931785;29;21240;-89
2023/07/10 08:48:54;;;;;;;8.23;2.30;;;;;;;21.04;100.00;102923.56;4929720;29;20475;-88
2023/07/10 08:51:19;;;;;;;5.53;1.77;;;;;;;20.87;100.00;102923.22;4926615;29;20444;-86
2023/07/10 08:53:52;;;;;;;5.53;1.87;;;;;;;20.85;100.00;102898.88;4926261;29;20479;-86
2023/07/10 08:56:28;;;;;;;5.03;1.87;;;;;;;20.97;100.00;102913.50;4944507;29;20699;-90
2023/07/10 08:59:01;;;;;;;3.60;1.70;;;;;;;20.54;100.00;102837.78;4961431;28;20522;-88
2023/07/10 09:01:33;;;;;;;6.13;1.97;;;;;;;21.00;100.00;102901.31;4941515;28;20944;-88
2023/07/10 09:04:00;;;;;;;4.23;2.40;;;;;;;20.75;100.00;102872.06;4931504;29;20466;-89
2023/07/10 09:06:37;;;;;;;6.23;2.37;;;;;;;20.71;100.00;102862.66;4930659;29;20450;-87
2023/07/10 09:09:24;;;;;;;3.57;1.70;;;;;;;21.15;100.00;102888.22;4928705;29;20462;-84
2023/07/10 09:11:52;;;;;;;5.93;2.20;;;;;;;21.16;100.00;102916.34;4926708;29;20454;-87
2023/07/10 09:14:36;;;;;;;5.77;2.10;;;;;;;21.04;100.00;102921.66;4929196;29;20538;-86
2023/07/10 09:17:07;;;;;;;4.87;1.67;;;;;;;21.21;100.00;102906.44;4931343;29;20443;-86
2023/07/10 09:19:33;;;;;;;5.90;2.13;;;;;;;20.93;100.00;102917.72;4932412;29;20451;-87
2023/07/10 09:21:59;;;;;;;5.20;2.17;;;;;;;20.99;100.00;102926.91;4932241;29;20443;-86
2023/07/10 09:24:24;;;;;;;3.53;1.57;;;;;;;21.14;100.00;102924.72;4926470;29;21100;-85
2023/07/10 09:26:50;;;;;;;3.53;1.70;;;;;;;20.84;100.00;102880.00;4927667;29;20199;-87
2023/07/10 09:29:15;;;;;;;7.73;2.30;;;;;;;21.29;100.00;102938.09;4924309;29;20215;-85
2023/07/10 09:32:12;;;;;;;3.67;1.67;;;;;;;21.42;100.00;102935.28;4928332;29;20290;-85
2023/07/10 09:34:53;;;;;;;4.00;2.10;;;;;;;20.99;100.00;102886.81;4940715;28;20188;-84
2023/07/10 09:37:22;;;;;;;5.47;2.07;;;;;;;21.41;100.00;102941.81;4929243;29;20988;-84
2023/07/10 09:39:47;;;;;;;10.20;2.10;;;;;;;21.25;100.00;102908.72;4927497;29;20479;-85
2023/07/10 09:42:17;;;;;;;4.30;2.07;;;;;;;21.62;100.00;102954.25;4926281;29;20478;-86
2023/07/10 09:44:55;;;;;;;6.83;2.53;;;;;;;21.81;100.00;102967.97;4929329;29;21023;-93
2023/07/10 09:47:21;;;;;;;6.60;2.30;;;;;;;21.62;100.00;102956.16;4928859;29;20506;-88
2023/07/10 09:49:49;;;;;;;5.53;2.10;;;;;;;21.77;100.00;102967.59;4929404;29;20997;-86
2023/07/10 09:52:22;;;;;;;6.10;1.90;;;;;;;21.67;100.00;102970.00;4928615;29;20887;-86
2023/07/10 09:54:49;;;;;;;6.20;2.23;;;;;;;21.66;100.00;102969.13;4925150;29;20473;-83
2023/07/10 09:57:17;;;;;;;5.80;2.23;;;;;;;21.59;100.00;102948.41;4926040;29;20952;-78
2023/07/10 09:59:49;;;;;;;5.80;2.33;;;;;;;21.32;100.00;102879.47;4929571;29;20732;-80
2023/07/10 10:02:22;;;;;;;8.33;1.87;;;;;;;21.81;100.00;102960.63;4927988;29;20471;-81
2023/07/10 10:05:10;;;;;;;5.50;2.00;;;;;;;21.43;100.00;102939.69;4925140;29;20471;-80
2023/07/10 10:07:39;;;;;;;3.83;1.60;;;;;;;22.01;100.00;102976.84;4925208;29;20450;-81
2023/07/10 10:10:25;;;;;;;8.03;1.77;;;;;;;22.06;100.00;102987.94;4915655;29;20587;-79
2023/07/10 10:13:01;;;;;;;6.90;2.00;;;;;;;22.10;100.00;102983.72;4908232;29;20261;-81
2023/07/10 10:15:41;;;;;;;7.30;2.40;;;;;;;21.92;100.00;102986.38;4920932;29;20542;-81
2023/07/10 10:18:35;;;;;;;5.53;2.07;;;;;;;22.18;100.00;102984.50;4918588;29;20455;-79
2023/07/10 10:21:02;;;;;;;6.33;1.93;;;;;;;22.22;100.00;102997.50;4924749;29;20542;-79
2023/07/10 10:23:31;;;;;;;2.80;1.70;;;;;;;22.13;100.00;102998.84;4924554;29;20475;-81
2023/07/10 10:26:11;;;;;;;5.30;1.93;;;;;;;22.05;100.00;103010.88;4925104;29;20451;-82
2023/07/10 10:28:48;;;;;;;5.37;1.87;;;;;;;22.30;100.00;102999.97;4922346;29;20896;-80
2023/07/10 10:31:22;;;;;;;6.00;1.77;;;;;;;22.30;100.00;103061.97;4933267;29;20455;-79
2023/07/10 10:34:16;;;;;;;6.13;1.90;;;;;;;22.51;100.00;103074.44;4923071;29;20471;-81
2023/07/10 10:36:58;;;;;;;4.37;1.50;;;;;;;22.30;100.00;103072.91;4925247;29;20436;-81
2023/07/10 10:39:42;;;;;;;5.20;2.03;;;;;;;21.91;100.00;103072.16;4926106;29;20466;-83
2023/07/10 10:42:08;;;;;;;5.63;1.93;;;;;;;22.18;100.00;103122.00;4921423;29;20962;-79
2023/07/10 10:44:48;;;;;;;7.83;2.60;;;;;;;22.42;100.00;103119.50;4922344;29;20453;-79
2023/07/10 10:47:23;;;;;;;5.50;1.50;;;;;;;22.73;100.00;103115.84;4927095;29;20231;-81
2023/07/10 10:50:16;;;;;;;5.30;2.30;;;;;;;22.72;100.00;103100.53;4922477;29;20475;-80
2023/07/10 10:52:56;;;;;;;3.87;1.50;;;;;;;22.76;100.00;103000.50;4955751;28;21016;-80
2023/07/10 10:55:55;;;;;;;7.43;2.23;;;;;;;22.71;100.00;102770.56;4922734;29;20459;-80
2023/07/10 10:58:44;;;;;;;4.23;2.00;;;;;;;22.49;100.00;102636.28;4921550;29;20522;-81
2023/07/10 11:01:30;;;;;;;11.90;2.40;;;;;;;22.90;100.00;102607.19;4925020;29;20506;-81
2023/07/10 11:04:03;;;;;;;5.13;2.10;;;;;;;22.87;100.00;102380.59;4915706;29;20948;-78
2023/07/10 11:06:38;;;;;;;7.47;1.67;;;;;;;22.91;100.00;102340.72;4908003;29;20716;-75
2023/07/10 11:09:29;;;;;;;3.17;1.47;;;;;;;23.14;100.00;102274.09;4921395;29;20474;-78
2023/07/10 11:11:58;;;;;;;7.73;1.90;;;;;;;23.36;100.00;102192.88;4923963;29;20447;-78
2023/07/10 11:14:24;;;;;;;6.77;2.03;;;;;;;22.85;100.00;102079.91;4924524;29;20948;-77
2023/07/10 11:16:49;;;;;;;3.90;1.77;;;;;;;23.58;100.00;102154.59;4921531;29;20461;-77
2023/07/10 11:19:20;;;;;;;13.07;2.20;;;;;;;23.09;100.00;102115.31;4918471;29;20483;-76
2023/07/10 11:21:45;;;;;;;4.40;1.70;;;;;;;23.35;100.00;102160.31;4920160;29;20623;-75